Time,TemperatureF,DewpointF,PressureIn,WindDirection,WindDirectionDegrees,WindSpeedMPH,WindSpeedGustMPH,Humidity,HourlyPrecipIn,Conditions,Clouds,dailyrainin,SoftwareType,DateUTC
2013-06-06 00:08:00,66.7,63.0,29.90,SSE,158,0.0,-999.0,89,-99.99,,,0.09,weatherlink.com 1.10,2013-06-06 04:08:00,
2013-06-06 00:23:00,66.4,63.0,29.90,SSE,150,0.0,-999.0,89,-99.99,,,0.09,weatherlink.com 1.10,2013-06-06 04:23:00,
2013-06-06 00:38:00,66.7,63.0,29.90,SE,142,0.0,-999.0,89,-99.99,,,0.09,weatherlink.com 1.10,2013-06-06 04:38:00,
2013-06-06 00:53:00,66.8,64.0,29.90,SE,142,0.0,-999.0,89,-99.99,,,0.09,weatherlink.com 1.10,2013-06-06 04:53:00,
2013-06-06 01:08:00,66.6,63.0,29.91,SE,143,0.0,-999.0,89,-99.99,,,0.09,weatherlink.com 1.10,2013-06-06 05:08:00,
2013-06-06 01:23:00,66.6,63.0,29.91,SE,143,0.0,-999.0,89,-99.99,,,0.09,weatherlink.com 1.10,2013-06-06 05:23:00,
2013-06-06 01:38:00,66.6,63.0,29.90,SE,143,0.0,-999.0,89,-99.99,,,0.09,weatherlink.com 1.10,2013-06-06 05:38:00,
2013-06-06 01:53:00,66.5,63.0,29.90,SE,143,0.0,-999.0,89,-99.99,,,0.09,weatherlink.com 1.10,2013-06-06 05:53:00,
2013-06-06 02:08:00,66.5,63.0,29.89,SSE,152,0.0,-999.0,89,-99.99,,,0.09,weatherlink.com 1.10,2013-06-06 06:08:00,
2013-06-06 02:23:00,66.5,63.0,29.88,South,186,0.0,-999.0,89,-99.99,,,0.09,weatherlink.com 1.10,2013-06-06 06:23:00,
2013-06-06 02:38:00,66.5,63.0,29.87,South,186,5.0,-999.0,89,-99.99,,,0.09,weatherlink.com 1.10,2013-06-06 06:38:00,
2013-06-06 02:53:00,66.6,63.0,29.87,South,181,0.0,-999.0,89,-99.99,,,0.09,weatherlink.com 1.10,2013-06-06 06:53:00,
2013-06-06 03:08:00,66.6,63.0,29.87,South,176,0.0,-999.0,89,-99.99,,,0.09,weatherlink.com 1.10,2013-06-06 07:08:00,
2013-06-06 03:23:00,66.6,63.0,29.86,South,177,0.0,-999.0,89,-99.99,,,0.09,weatherlink.com 1.10,2013-06-06 07:23:00,
2013-06-06 03:38:00,66.5,63.0,29.86,SSW,208,0.0,-999.0,89,-99.99,,,0.09,weatherlink.com 1.10,2013-06-06 07:38:00,
2013-06-06 03:53:00,66.5,63.0,29.86,SSW,193,0.0,-999.0,89,-99.99,,,0.09,weatherlink.com 1.10,2013-06-06 07:53:00,
2013-06-06 04:08:00,66.3,63.0,29.86,SSW,193,0.0,-999.0,89,-99.99,,,0.09,weatherlink.com 1.10,2013-06-06 08:08:00,
2013-06-06 04:23:00,66.2,63.0,29.86,SSW,193,0.0,-999.0,89,-99.99,,,0.09,weatherlink.com 1.10,2013-06-06 08:23:00,
2013-06-06 04:38:00,66.1,63.0,29.86,SSW,193,0.0,-999.0,89,-99.99,,,0.09,weatherlink.com 1.10,2013-06-06 08:38:00,
2013-06-06 04:53:00,65.9,63.0,29.86,SSW,193,0.0,-999.0,89,-99.99,,,0.09,weatherlink.com 1.10,2013-06-06 08:53:00,
2013-06-06 05:08:00,65.9,63.0,29.86,SSW,193,0.0,-999.0,89,-99.99,,,0.09,weatherlink.com 1.10,2013-06-06 09:08:00,
2013-06-06 05:23:00,65.8,63.0,29.87,SSW,193,0.0,-999.0,89,-99.99,,,0.09,weatherlink.com 1.10,2013-06-06 09:23:00,
2013-06-06 05:38:00,65.6,62.0,29.87,SSW,193,0.0,-999.0,89,-99.99,,,0.09,weatherlink.com 1.10,2013-06-06 09:38:00,
2013-06-06 05:53:00,65.3,62.0,29.86,SSW,193,0.0,-999.0,89,-99.99,,,0.09,weatherlink.com 1.10,2013-06-06 09:53:00,
2013-06-06 06:08:00,65.0,62.0,29.86,SSW,193,0.0,-999.0,89,-99.99,,,0.09,weatherlink.com 1.10,2013-06-06 10:08:00,
2013-06-06 06:23:00,64.7,62.0,29.86,SSW,193,0.0,-999.0,89,-99.99,,,0.09,weatherlink.com 1.10,2013-06-06 10:23:00,
2013-06-06 06:38:00,64.4,61.0,29.87,SSW,204,0.0,-999.0,89,-99.99,,,0.09,weatherlink.com 1.10,2013-06-06 10:38:00,
2013-06-06 06:53:00,64.2,61.0,29.87,SSW,204,0.0,-999.0,89,-99.99,,,0.09,weatherlink.com 1.10,2013-06-06 10:53:00,
2013-06-06 07:08:00,64.6,61.0,29.87,SSW,203,0.0,-999.0,89,-99.99,,,0.09,weatherlink.com 1.10,2013-06-06 11:08:00,
2013-06-06 07:23:00,65.6,62.0,29.88,South,184,0.0,-999.0,89,-99.99,,,0.09,weatherlink.com 1.10,2013-06-06 11:23:00,
2013-06-06 07:38:00,66.0,63.0,29.88,South,174,0.0,-999.0,89,-99.99,,,0.09,weatherlink.com 1.10,2013-06-06 11:38:00,
2013-06-06 07:53:00,66.3,63.0,29.88,South,188,0.0,-999.0,89,-99.99,,,0.09,weatherlink.com 1.10,2013-06-06 11:53:00,
2013-06-06 08:08:00,66.6,63.0,29.88,SSW,207,0.0,-999.0,89,-99.99,,,0.09,weatherlink.com 1.10,2013-06-06 12:08:00,
2013-06-06 08:23:00,66.7,63.0,29.88,SSW,197,1.0,-999.0,89,-99.99,,,0.09,weatherlink.com 1.10,2013-06-06 12:23:00,
2013-06-06 08:38:00,67.1,64.0,29.88,SSW,207,2.0,-999.0,89,-99.99,,,0.09,weatherlink.com 1.10,2013-06-06 12:38:00,
2013-06-06 08:53:00,67.6,64.0,29.88,SSW,196,0.0,-999.0,89,-99.99,,,0.09,weatherlink.com 1.10,2013-06-06 12:53:00,
2013-06-06 09:09:00,68.5,66.0,29.89,SSW,212,0.0,-999.0,90,-99.99,,,0.09,weatherlink.com 1.10,2013-06-06 13:09:00,
2013-06-06 09:24:00,69.1,67.0,29.89,SW,217,0.0,-999.0,92,-99.99,,,0.09,weatherlink.com 1.10,2013-06-06 13:24:00,
2013-06-06 09:39:00,70.5,68.0,29.88,WSW,255,0.0,-999.0,90,-99.99,,,0.09,weatherlink.com 1.10,2013-06-06 13:39:00,
2013-06-06 09:54:00,71.0,67.0,29.87,WSW,250,2.0,-999.0,88,-99.99,,,0.09,weatherlink.com 1.10,2013-06-06 13:54:00,
2013-06-06 10:09:00,71.7,68.0,29.86,South,190,6.0,-999.0,88,-99.99,,,0.09,weatherlink.com 1.10,2013-06-06 14:09:00,
2013-06-06 10:24:00,72.4,68.0,29.86,SSE,160,5.0,-999.0,86,-99.99,,,0.09,weatherlink.com 1.10,2013-06-06 14:24:00,
2013-06-06 10:39:00,73.7,69.0,29.86,SSW,210,5.0,-999.0,85,-99.99,,,0.09,weatherlink.com 1.10,2013-06-06 14:39:00,
2013-06-06 10:54:00,73.9,69.0,29.86,South,169,7.0,-999.0,84,-99.99,,,0.09,weatherlink.com 1.10,2013-06-06 14:54:00,
2013-06-06 11:09:00,74.2,69.0,29.86,SSW,193,5.0,-999.0,84,-99.99,,,0.09,weatherlink.com 1.10,2013-06-06 15:09:00,
2013-06-06 11:24:00,74.9,69.0,29.86,WSW,242,2.0,-999.0,82,-99.99,,,0.09,weatherlink.com 1.10,2013-06-06 15:24:00,
2013-06-06 11:39:00,74.9,68.0,29.86,WSW,242,3.0,-999.0,80,-99.99,,,0.09,weatherlink.com 1.10,2013-06-06 15:39:00,
2013-06-06 11:54:00,75.2,68.0,29.86,West,272,4.0,-999.0,79,-99.99,,,0.09,weatherlink.com 1.10,2013-06-06 15:54:00,
2013-06-06 12:09:00,76.7,69.0,29.86,West,261,3.0,-999.0,78,-99.99,,,0.09,weatherlink.com 1.10,2013-06-06 16:09:00,
2013-06-06 12:24:00,76.9,70.0,29.85,South,190,2.0,-999.0,78,-99.99,,,0.09,weatherlink.com 1.10,2013-06-06 16:24:00,
2013-06-06 12:39:00,77.1,69.0,29.85,SW,221,5.0,-999.0,77,-99.99,,,0.09,weatherlink.com 1.10,2013-06-06 16:39:00,
2013-06-06 12:54:00,77.5,69.0,29.84,South,188,0.0,-999.0,75,-99.99,,,0.09,weatherlink.com 1.10,2013-06-06 16:54:00,
2013-06-06 13:09:00,77.5,69.0,29.83,South,173,7.0,-999.0,76,-99.99,,,0.09,weatherlink.com 1.10,2013-06-06 17:09:00,
2013-06-06 13:24:00,78.7,70.0,29.83,SW,218,2.0,-999.0,75,-99.99,,,0.09,weatherlink.com 1.10,2013-06-06 17:24:00,
2013-06-06 13:39:00,78.4,70.0,29.83,WSW,246,2.0,-999.0,75,-99.99,,,0.09,weatherlink.com 1.10,2013-06-06 17:39:00,
2013-06-06 13:54:00,78.7,70.0,29.83,WSW,254,3.0,-999.0,74,-99.99,,,0.09,weatherlink.com 1.10,2013-06-06 17:54:00,
2013-06-06 14:09:00,78.7,70.0,29.83,SSE,157,2.0,-999.0,74,-99.99,,,0.09,weatherlink.com 1.10,2013-06-06 18:09:00,
2013-06-06 14:24:00,78.7,71.0,29.83,South,184,2.0,-999.0,76,-99.99,,,0.09,weatherlink.com 1.10,2013-06-06 18:24:00,
2013-06-06 14:39:00,79.2,71.0,29.83,West,263,5.0,-999.0,75,-99.99,,,0.09,weatherlink.com 1.10,2013-06-06 18:39:00,
2013-06-06 14:54:00,79.1,70.0,29.82,WSW,244,0.0,-999.0,73,-99.99,,,0.09,weatherlink.com 1.10,2013-06-06 18:54:00,
2013-06-06 15:09:00,79.2,70.0,29.82,West,261,3.0,-999.0,74,-99.99,,,0.09,weatherlink.com 1.10,2013-06-06 19:09:00,
2013-06-06 15:24:00,79.4,71.0,29.82,West,262,4.0,-999.0,75,-99.99,,,0.09,weatherlink.com 1.10,2013-06-06 19:24:00,
2013-06-06 15:39:00,79.7,71.0,29.81,West,281,0.0,-999.0,75,-99.99,,,0.09,weatherlink.com 1.10,2013-06-06 19:39:00,
2013-06-06 15:54:00,79.9,71.0,29.80,SSW,204,0.0,-999.0,74,-99.99,,,0.09,weatherlink.com 1.10,2013-06-06 19:54:00,
2013-06-06 16:09:00,80.1,71.0,29.79,NW,311,0.0,-999.0,74,-99.99,,,0.09,weatherlink.com 1.10,2013-06-06 20:09:00,
2013-06-06 16:24:00,80.1,71.0,29.79,NW,325,0.0,-999.0,74,-99.99,,,0.09,weatherlink.com 1.10,2013-06-06 20:24:00,
2013-06-06 16:39:00,79.1,71.0,29.79,NNE,15,6.0,-999.0,77,-99.99,,,0.10,weatherlink.com 1.10,2013-06-06 20:39:00,
2013-06-06 16:54:00,78.1,73.0,29.78,North,360,0.0,-999.0,83,-99.99,,,0.10,weatherlink.com 1.10,2013-06-06 20:54:00,
2013-06-06 17:09:00,78.9,72.0,29.78,NNW,341,4.0,-999.0,79,-99.99,,,0.10,weatherlink.com 1.10,2013-06-06 21:09:00,
2013-06-06 17:24:00,79.6,71.0,29.77,NNW,328,0.0,-999.0,76,-99.99,,,0.10,weatherlink.com 1.10,2013-06-06 21:24:00,
2013-06-06 17:39:00,79.5,71.0,29.76,NNW,338,4.0,-999.0,76,-99.99,,,0.00,weatherlink.com 1.10,2013-06-06 21:39:00,
2013-06-06 17:54:00,79.8,72.0,29.76,NNE,13,0.0,-999.0,76,-99.99,,,0.00,weatherlink.com 1.10,2013-06-06 21:54:00,
2013-06-06 18:09:00,80.1,72.0,29.75,ENE,73,0.0,-999.0,76,-99.99,,,0.00,weatherlink.com 1.10,2013-06-06 22:09:00,
2013-06-06 18:24:00,80.2,72.0,29.75,ENE,57,0.0,-999.0,77,-99.99,,,0.00,weatherlink.com 1.10,2013-06-06 22:24:00,
2013-06-06 18:40:00,79.7,72.0,29.75,North,360,0.0,-999.0,78,-99.99,,,0.00,weatherlink.com 1.10,2013-06-06 22:40:00,
2013-06-06 18:55:00,79.7,72.0,29.76,NE,34,0.0,-999.0,76,-99.99,,,0.00,weatherlink.com 1.10,2013-06-06 22:55:00,
2013-06-06 19:10:00,79.5,72.0,29.76,NNE,24,0.0,-999.0,78,-99.99,,,0.00,weatherlink.com 1.10,2013-06-06 23:10:00,
2013-06-06 19:25:00,79.0,71.0,29.76,NNW,346,4.0,-999.0,76,-99.99,,,0.00,weatherlink.com 1.10,2013-06-06 23:25:00,
2013-06-06 19:40:00,79.3,71.0,29.76,North,11,0.0,-999.0,75,-99.99,,,0.00,weatherlink.com 1.10,2013-06-06 23:40:00,
2013-06-06 19:55:00,79.6,71.0,29.75,North,360,0.0,-999.0,75,-99.99,,,0.00,weatherlink.com 1.10,2013-06-06 23:55:00,
2013-06-06 20:10:00,78.6,70.0,29.75,North,355,0.0,-999.0,75,-99.99,,,0.00,weatherlink.com 1.10,2013-06-07 00:10:00,
2013-06-06 20:25:00,78.3,71.0,29.76,North,11,0.0,-999.0,77,-99.99,,,0.00,weatherlink.com 1.10,2013-06-07 00:25:00,
2013-06-06 20:40:00,77.3,71.0,29.76,North,11,0.0,-999.0,80,-99.99,,,0.00,weatherlink.com 1.10,2013-06-07 00:40:00,
2013-06-06 20:55:00,76.3,71.0,29.76,North,11,0.0,-999.0,83,-99.99,,,0.00,weatherlink.com 1.10,2013-06-07 00:55:00,
2013-06-06 21:10:00,75.5,71.0,29.77,North,10,0.0,-999.0,86,-99.99,,,0.00,weatherlink.com 1.10,2013-06-07 01:10:00,
2013-06-06 21:25:00,74.5,71.0,29.77,North,11,0.0,-999.0,88,-99.99,,,0.00,weatherlink.com 1.10,2013-06-07 01:25:00,
2013-06-06 21:40:00,73.6,70.0,29.77,North,10,0.0,-999.0,89,-99.99,,,0.00,weatherlink.com 1.10,2013-06-07 01:40:00,
2013-06-06 21:55:00,73.1,70.0,29.77,North,10,0.0,-999.0,90,-99.99,,,0.00,weatherlink.com 1.10,2013-06-07 01:55:00,
2013-06-06 22:10:00,72.6,70.0,29.77,North,11,0.0,-999.0,91,-99.99,,,0.00,weatherlink.com 1.10,2013-06-07 02:10:00,
2013-06-06 22:25:00,72.1,69.0,29.78,North,11,0.0,-999.0,91,-99.99,,,0.00,weatherlink.com 1.10,2013-06-07 02:25:00,
2013-06-06 22:40:00,71.6,69.0,29.78,NW,304,0.0,-999.0,91,-99.99,,,0.00,weatherlink.com 1.10,2013-06-07 02:40:00,
2013-06-06 22:55:00,71.7,69.0,29.79,West,280,0.0,-999.0,91,-99.99,,,0.00,weatherlink.com 1.10,2013-06-07 02:55:00,
2013-06-06 23:10:00,71.4,69.0,29.79,West,280,0.0,-999.0,91,-99.99,,,0.00,weatherlink.com 1.10,2013-06-07 03:10:00,
2013-06-06 23:25:00,71.1,68.0,29.79,West,281,0.0,-999.0,91,-99.99,,,0.00,weatherlink.com 1.10,2013-06-07 03:25:00,
2013-06-06 23:40:00,71.0,68.0,29.79,WNW,282,0.0,-999.0,91,-99.99,,,0.00,weatherlink.com 1.10,2013-06-07 03:40:00,
2013-06-06 23:55:00,71.4,69.0,29.78,WNW,282,0.0,-999.0,91,-99.99,,,0.00,weatherlink.com 1.10,2013-06-07 03:55:00,